createdAt,value
2022-11-29T00:03:34.109Z,97337.03
2022-11-29T00:07:35.550Z,97333.72
2022-11-29T00:11:37.883Z,97317.63
2022-11-29T00:15:39.562Z,97326.41
2022-11-29T00:19:42.305Z,97326.09
2022-11-29T00:23:43.669Z,97330.09
2022-11-29T00:27:45.031Z,97336.34
2022-11-29T00:31:46.398Z,97329.03
2022-11-29T00:35:49.157Z,97328.19
2022-11-29T00:39:50.511Z,97318.69
2022-11-29T00:43:52.265Z,97323.53
2022-11-29T00:47:53.666Z,97320.81
2022-11-29T00:51:56.449Z,97327.94
2022-11-29T00:55:57.879Z,97324.91
2022-11-29T00:59:59.262Z,97328.41
2022-11-29T01:04:00.634Z,97330.63
2022-11-29T01:08:03.473Z,97319.91
2022-11-29T01:12:04.969Z,97322.38
2022-11-29T01:16:06.946Z,97325.22
2022-11-29T01:20:09.968Z,97328.53
2022-11-29T01:24:12.712Z,97325.22
2022-11-29T01:28:14.072Z,97331.56
2022-11-29T01:32:15.485Z,97339.13
2022-11-29T01:36:16.840Z,97334.94
2022-11-29T01:40:19.558Z,97339.28
2022-11-29T01:44:39.777Z,97333.63
2022-11-29T01:48:41.170Z,97333.34
2022-11-29T01:52:42.585Z,97327.94
2022-11-29T01:56:47.281Z,97327.44
2022-11-29T02:00:48.941Z,97329.38
2022-11-29T02:04:50.827Z,97326.13
2022-11-29T02:08:52.265Z,97333.44
2022-11-29T02:13:00.168Z,97329.03
2022-11-29T02:17:06.893Z,97320.88
2022-11-29T02:21:15.748Z,97327.63
2022-11-29T02:25:24.340Z,97319.94
2022-11-29T02:29:34.445Z,97321.66
2022-11-29T02:33:50.495Z,97322.94
2022-11-29T02:38:04.949Z,97319.72
2022-11-29T02:42:17.062Z,97317.03
2022-11-29T02:46:31.636Z,97317.34
2022-11-29T02:50:38.824Z,97320.34
2022-11-29T02:54:46.413Z,97317.88
2022-11-29T02:58:51.049Z,97327.97
2022-11-29T03:02:55.463Z,97325.56
2022-11-29T03:07:02.161Z,97331.75
2022-11-29T03:11:06.698Z,97318.72
2022-11-29T03:15:16.843Z,97332.88
2022-11-29T03:19:27.262Z,97343.88
2022-11-29T03:23:33.120Z,97343.31
2022-11-29T03:27:38.320Z,97348.50
2022-11-29T03:31:43.568Z,97342.81
2022-11-29T03:35:51.131Z,97346.00
2022-11-29T03:40:06.985Z,97347.16
2022-11-29T03:44:11.227Z,97344.69
2022-11-29T03:48:16.248Z,97337.31
2022-11-29T03:52:21.243Z,97338.19
2022-11-29T03:56:26.862Z,97349.63
2022-11-29T04:00:34.735Z,97352.88
2022-11-29T04:04:56.612Z,97349.84
2022-11-29T04:09:11.876Z,97350.91
2022-11-29T04:13:28.097Z,97354.53
2022-11-29T04:17:49.657Z,97351.22
2022-11-29T04:22:08.365Z,97347.41
2022-11-29T04:26:24.822Z,97349.91
2022-11-29T04:30:27.372Z,97357.19
2022-11-29T04:34:44.987Z,97357.72
2022-11-29T04:39:01.104Z,97360.50
2022-11-29T04:43:17.209Z,97360.81
2022-11-29T04:47:29.689Z,97362.75
2022-11-29T04:51:40.660Z,97363.28
2022-11-29T04:55:45.533Z,97365.22
2022-11-29T04:59:49.799Z,97373.72
2022-11-29T05:03:57.231Z,97369.16
2022-11-29T05:08:08.332Z,97380.06
2022-11-29T05:12:12.824Z,97379.22
2022-11-29T05:16:28.196Z,97385.47
2022-11-29T05:20:36.184Z,97381.31
2022-11-29T05:24:50.932Z,97387.41
2022-11-29T05:28:58.018Z,97390.16
2022-11-29T05:33:15.732Z,97391.25
2022-11-29T05:37:22.464Z,97395.84
2022-11-29T05:41:32.880Z,97395.38
2022-11-29T05:45:37.077Z,97400.66
2022-11-29T05:49:42.148Z,97400.66
2022-11-29T05:53:47.267Z,97395.75
2022-11-29T05:57:57.471Z,97399.03
2022-11-29T06:02:05.011Z,97403.09
2022-11-29T06:06:13.990Z,97410.47
2022-11-29T06:10:16.522Z,97401.72
2022-11-29T06:14:34.492Z,97404.72
2022-11-29T06:18:44.786Z,97407.78
2022-11-29T06:22:55.502Z,97407.25
2022-11-29T06:27:05.587Z,97409.16
2022-11-29T06:31:11.931Z,97419.03
2022-11-29T06:35:28.590Z,97417.94
2022-11-29T06:39:30.258Z,97422.25
2022-11-29T06:43:31.893Z,97425.81
2022-11-29T06:47:39.877Z,97427.94
2022-11-29T06:51:48.506Z,97428.28
2022-11-29T06:55:54.122Z,97432.94
2022-11-29T07:00:01.813Z,97440.91
2022-11-29T07:04:14.600Z,97435.75
2022-11-29T07:08:16.984Z,97443.44
2022-11-29T07:12:18.837Z,97443.97
2022-11-29T07:16:24.218Z,97450.78
2022-11-29T07:20:32.716Z,97450.53
2022-11-29T07:24:38.857Z,97445.31
2022-11-29T07:28:47.678Z,97446.69
2022-11-29T07:33:00.092Z,97448.09
2022-11-29T07:37:08.643Z,97455.75
2022-11-29T07:41:15.503Z,97459.63
2022-11-29T07:45:20.754Z,97459.34
2022-11-29T07:49:22.138Z,97459.91
2022-11-29T07:53:24.917Z,97457.25
2022-11-29T07:57:26.252Z,97462.09
2022-11-29T08:01:27.701Z,97459.91
2022-11-29T08:05:29.142Z,97456.38
2022-11-29T08:09:31.875Z,97465.22
2022-11-29T08:13:33.252Z,97463.31
2022-11-29T08:17:34.612Z,97466.91
2022-11-29T08:21:36.017Z,97475.34
2022-11-29T08:25:38.771Z,97474.28
2022-11-29T08:29:40.158Z,97480.84
2022-11-29T08:33:43.089Z,97481.13
2022-11-29T08:37:44.493Z,97476.25
2022-11-29T08:41:48.476Z,97479.56
2022-11-29T08:45:51.913Z,97485.34
2022-11-29T08:49:53.339Z,97490.28
2022-11-29T08:53:54.883Z,97485.09
2022-11-29T08:58:01.910Z,97489.47
2022-11-29T09:02:03.374Z,97487.28
2022-11-29T09:06:10.507Z,97495.50
2022-11-29T09:10:13.709Z,97499.09
2022-11-29T09:14:16.923Z,97507.59
2022-11-29T09:18:18.267Z,97506.78
2022-11-29T09:22:19.643Z,97504.34
2022-11-29T09:26:20.998Z,97509.56
2022-11-29T09:30:24.036Z,97500.75
2022-11-29T09:34:25.447Z,97518.88
2022-11-29T09:38:26.874Z,97508.75
2022-11-29T09:42:37.142Z,97516.97
2022-11-29T09:46:44.057Z,97514.22
2022-11-29T09:50:47.874Z,97518.06
2022-11-29T09:54:53.151Z,97513.97
2022-11-29T09:59:01.742Z,97516.69
2022-11-29T10:03:14.538Z,97519.44
2022-11-29T10:07:19.388Z,97519.97
2022-11-29T10:11:24.988Z,97520.53
2022-11-29T10:15:27.083Z,97515.88
2022-11-29T10:19:31.259Z,97521.09
2022-11-29T10:23:35.682Z,97514.22
2022-11-29T10:27:39.118Z,97522.44
2022-11-29T10:31:41.530Z,97516.69
2022-11-29T10:35:44.937Z,97514.78
2022-11-29T10:39:48.240Z,97517.81
2022-11-29T10:43:50.528Z,97515.34
2022-11-29T10:47:53.044Z,97517.78
2022-11-29T10:51:55.790Z,97507.38
2022-11-29T10:56:00.367Z,97511.75
2022-11-29T11:00:02.348Z,97513.69
2022-11-29T11:04:05.226Z,97511.22
2022-11-29T11:08:16.498Z,97513.41
2022-11-29T11:12:19.666Z,97511.22
2022-11-29T11:16:24.141Z,97510.69
2022-11-29T11:20:27.605Z,97512.03
2022-11-29T11:24:31.687Z,97513.72
2022-11-29T11:28:37.676Z,97513.41
2022-11-29T11:32:39.096Z,97516.72
2022-11-29T11:36:40.477Z,97518.91
2022-11-29T11:40:43.873Z,97515.06
2022-11-29T11:44:47.576Z,97522.72
2022-11-29T11:48:59.460Z,97522.47
2022-11-29T11:53:03.917Z,97520.53
2022-11-29T11:57:15.442Z,97523.59
2022-11-29T12:01:23.638Z,97522.47
2022-11-29T12:05:25.131Z,97526.59
2022-11-29T12:09:30.658Z,97539.22
2022-11-29T12:13:35.506Z,97536.47
2022-11-29T12:17:39.670Z,97534.53
2022-11-29T12:21:43.637Z,97532.34
2022-11-29T12:25:48.755Z,97535.66
2022-11-29T12:29:51.555Z,97539.16
2022-11-29T12:33:58.607Z,97539.47
2022-11-29T12:38:04.350Z,97536.97
2022-11-29T12:42:10.453Z,97537.22
2022-11-29T12:46:16.354Z,97536.41
2022-11-29T12:50:24.071Z,97538.03
2022-11-29T12:54:43.674Z,97548.78
2022-11-29T12:58:53.524Z,97542.47
2022-11-29T13:03:02.817Z,97545.47
2022-11-29T13:07:09.561Z,97548.78
2022-11-29T13:11:14.422Z,97550.72
2022-11-29T13:15:16.837Z,97553.72
2022-11-29T13:19:23.406Z,97552.09
2022-11-29T13:23:45.731Z,97547.97
2022-11-29T13:27:54.344Z,97555.66
2022-11-29T13:31:56.171Z,97560.88
2022-11-29T13:36:06.053Z,97552.66
2022-11-29T13:40:18.972Z,97560.63
2022-11-29T13:44:23.834Z,97554.88
2022-11-29T13:48:36.138Z,97559.25
2022-11-29T13:52:42.141Z,97569.16
2022-11-29T13:56:43.531Z,97568.03
2022-11-29T14:00:49.515Z,97575.72
2022-11-29T14:04:51.857Z,97569.13
2022-11-29T14:09:19.237Z,97573.81
2022-11-29T14:13:27.385Z,97579.31
2022-11-29T14:17:33.254Z,97578.22
2022-11-29T14:21:49.493Z,97580.66
2022-11-29T14:26:09.570Z,97572.66
2022-11-29T14:30:25.826Z,97574.03
2022-11-29T14:34:36.553Z,97576.25
2022-11-29T14:38:43.884Z,97578.97
2022-11-29T14:42:46.266Z,97585.81
2022-11-29T14:46:48.099Z,97579.25
2022-11-29T14:51:06.728Z,97583.91
2022-11-29T14:55:27.691Z,97586.66
2022-11-29T14:59:40.999Z,97588.84
2022-11-29T15:03:44.845Z,97593.19
2022-11-29T15:07:52.562Z,97597.59
2022-11-29T15:11:57.677Z,97597.59
2022-11-29T15:16:13.472Z,97600.63
2022-11-29T15:20:30.957Z,97603.03
2022-11-29T15:24:48.807Z,97609.34
2022-11-29T15:28:50.219Z,97598.94
2022-11-29T15:32:52.023Z,97607.91
2022-11-29T15:36:53.427Z,97610.91
2022-11-29T15:40:56.194Z,97611.47
2022-11-29T15:44:57.604Z,97610.91
2022-11-29T15:49:13.869Z,97613.38
2022-11-29T15:53:17.928Z,97620.94
2022-11-29T15:57:24.898Z,97617.97
2022-11-29T16:01:26.387Z,97614.41
2022-11-29T16:05:29.431Z,97630.03
2022-11-29T16:09:32.915Z,97629.47
2022-11-29T16:13:39.392Z,97621.47
2022-11-29T16:17:41.295Z,97628.00
2022-11-29T16:21:43.018Z,97633.47
2022-11-29T16:25:53.597Z,97636.53
2022-11-29T16:29:56.439Z,97637.94
2022-11-29T16:34:05.597Z,97637.28
2022-11-29T16:38:16.189Z,97644.47
2022-11-29T16:42:24.898Z,97649.75
2022-11-29T16:46:29.704Z,97646.19
2022-11-29T16:50:31.658Z,97643.09
2022-11-29T16:54:33.097Z,97646.84
2022-11-29T16:58:38.743Z,97641.69
2022-11-29T17:02:44.608Z,97639.16
2022-11-29T17:06:46.191Z,97640.31
2022-11-29T17:10:47.566Z,97645.78
2022-11-29T17:14:48.966Z,97647.72
2022-11-29T17:18:51.891Z,97651.25
2022-11-29T17:22:53.268Z,97653.19
2022-11-29T17:26:54.692Z,97653.19
2022-11-29T17:30:56.102Z,97651.31
2022-11-29T17:34:58.826Z,97654.56
2022-11-29T17:39:00.595Z,97658.66
2022-11-29T17:43:01.953Z,97661.97
2022-11-29T17:47:03.397Z,97665.25
2022-11-29T17:51:17.283Z,97679.75
2022-11-29T17:55:26.958Z,97677.03
2022-11-29T17:59:30.836Z,97680.38
2022-11-29T18:03:32.255Z,97683.97
2022-11-29T18:07:35.054Z,97690.47
2022-11-29T18:11:45.291Z,97679.75
2022-11-29T18:15:48.115Z,97674.66
2022-11-29T18:19:49.532Z,97676.25
2022-11-29T18:23:52.560Z,97672.69
2022-11-29T18:27:53.941Z,97674.28
2022-11-29T18:31:55.374Z,97675.09
2022-11-29T18:36:01.545Z,97678.09
2022-11-29T18:40:04.676Z,97680.53
2022-11-29T18:44:06.822Z,97688.72
2022-11-29T18:48:08.228Z,97696.16
2022-11-29T18:52:09.624Z,97698.56
2022-11-29T18:56:13.511Z,97702.69
2022-11-29T19:00:15.467Z,97701.31
2022-11-29T19:04:19.951Z,97713.94
2022-11-29T19:08:21.336Z,97710.34
2022-11-29T19:12:24.148Z,97713.44
2022-11-29T19:16:26.928Z,97720.41
2022-11-29T19:20:28.407Z,97714.31
2022-11-29T19:24:29.797Z,97723.25
2022-11-29T19:28:32.560Z,97725.44
2022-11-29T19:32:33.917Z,97731.13
2022-11-29T19:36:35.239Z,97734.09
2022-11-29T19:40:38.562Z,97741.78
2022-11-29T19:45:09.007Z,97740.91
2022-11-29T19:49:03.569Z,97751.88
2022-11-29T19:53:04.967Z,97734.91
2022-11-29T19:57:06.335Z,97742.38
2022-11-29T20:01:09.909Z,97747.22
2022-11-29T20:05:11.342Z,97753.22
2022-11-29T20:09:13.401Z,97758.41
2022-11-29T20:13:14.794Z,97756.94
2022-11-29T20:17:17.505Z,97762.06
2022-11-29T20:21:19.920Z,97760.66
2022-11-29T20:25:21.281Z,97763.41
2022-11-29T20:29:22.626Z,97771.09
2022-11-29T20:33:25.467Z,97774.19
2022-11-29T20:37:36.992Z,97780.50
2022-11-29T20:41:41.460Z,97766.56
2022-11-29T20:45:43.031Z,97775.19
2022-11-29T20:49:46.344Z,97775.34
2022-11-29T20:53:47.865Z,97767.31
2022-11-29T20:57:49.197Z,97777.72
2022-11-29T21:01:50.605Z,97768.94
2022-11-29T21:05:53.856Z,97779.44
2022-11-29T21:10:00.757Z,97767.50
2022-11-29T21:14:02.880Z,97769.75
2022-11-29T21:18:04.522Z,97768.59
2022-11-29T21:22:12.386Z,97786.50
2022-11-29T21:26:16.147Z,97778.69
2022-11-29T21:30:18.860Z,97779.78
2022-11-29T21:34:20.331Z,97780.59
2022-11-29T21:38:24.178Z,97775.28
2022-11-29T21:42:25.536Z,97780.19
2022-11-29T21:46:26.897Z,97772.84
2022-11-29T21:50:28.251Z,97776.06
2022-11-29T21:54:30.988Z,97770.53
2022-11-29T21:58:33.106Z,97774.72
2022-11-29T22:02:35.257Z,97770.75
2022-11-29T22:06:36.799Z,97779.97
2022-11-29T22:10:39.842Z,97784.84
2022-11-29T22:14:41.194Z,97780.34
2022-11-29T22:18:42.550Z,97789.69
2022-11-29T22:22:43.929Z,97786.72
2022-11-29T22:26:47.115Z,97791.41
2022-11-29T22:30:48.521Z,97795.22
2022-11-29T22:34:49.887Z,97799.00
2022-11-29T22:38:51.283Z,97795.84
2022-11-29T22:42:54.061Z,97795.56
2022-11-29T22:46:55.574Z,97795.69
2022-11-29T22:51:01.572Z,97787.53
2022-11-29T22:55:05.023Z,97793.13
2022-11-29T22:59:08.527Z,97783.69
2022-11-29T23:03:09.882Z,97786.28
2022-11-29T23:07:11.284Z,97781.75
2022-11-29T23:11:13.979Z,97784.28
2022-11-29T23:15:16.817Z,97775.97
2022-11-29T23:19:18.747Z,97779.06
2022-11-29T23:23:20.115Z,97780.50
2022-11-29T23:27:21.481Z,97775.84
2022-11-29T23:31:24.296Z,97779.78
2022-11-29T23:35:25.734Z,97773.00
2022-11-29T23:39:27.098Z,97778.34
2022-11-29T23:43:28.741Z,97778.66
2022-11-29T23:47:31.494Z,97776.06
2022-11-29T23:51:32.853Z,97765.22
2022-11-29T23:55:34.209Z,97767.72
2022-11-29T23:59:35.569Z,97758.25
